Time;durP1;ratioP1;P1;durP2;ratioP2;P2;SDS_P1;SDS_P2;PMS_P1;PMS_P2;Temp;Humidity;BMP_temperature;BMP_pressure;BME280_temperature;BME280_humidity;BME280_pressure;Samples;Min_cycle;Max_cycle;Signal;HPM_P1;HPM_P2
2021/08/17 00:02:31;;;;;;;22.38;9.77;;;11.20;99.90;;;;;;4918839;29;20052;-94
2021/08/17 00:05:45;;;;;;;21.67;10.07;;;11.10;99.90;;;;;;4844016;29;20099;-93
2021/08/17 00:08:48;;;;;;;19.60;8.88;;;11.10;99.90;;;;;;4845451;29;20061;-93
2021/08/17 00:15:12;;;;;;;22.35;11.10;;;10.90;99.90;;;;;;4808204;29;20058;-91
2021/08/17 00:22:39;;;;;;;22.95;9.82;;;10.80;99.90;;;;;;4841877;29;20044;-92
2021/08/17 00:25:31;;;;;;;25.92;10.40;;;10.70;99.90;;;;;;4921015;29;20068;-92
2021/08/17 00:29:15;;;;;;;;;;;;;;;;;;;;;
2021/08/17 00:33:27;;;;;;;19.15;8.98;;;10.50;99.90;;;;;;4920193;29;20058;-94
2021/08/17 01:05:43;;;;;;;19.60;8.30;;;9.80;99.90;;;;;;5086801;28;20503;-92
2021/08/17 01:09:12;;;;;;;23.85;9.13;;;9.70;99.90;;;;;;5087325;28;20040;-92
2021/08/17 01:12:27;;;;;;;15.45;8.07;;;9.70;99.90;;;;;;5089031;28;20140;-93
2021/08/17 01:15:36;;;;;;;;;;;;;;;;;;;;;
2021/08/17 01:18:29;;;;;;;18.25;8.63;;;9.60;99.90;;;;;;5078978;28;20139;-91
2021/08/17 01:22:10;;;;;;;19.00;8.98;;;9.60;99.90;;;;;;5073131;28;20116;-92
2021/08/17 01:25:24;;;;;;;16.05;8.32;;;9.50;99.90;;;;;;5079850;28;20068;-91
2021/08/17 01:28:35;;;;;;;22.85;8.75;;;9.50;99.90;;;;;;5074748;28;20147;-92
2021/08/17 01:31:34;;;;;;;;;;;9.40;99.90;;;;;;5092062;28;20089;-93
2021/08/17 01:34:26;;;;;;;16.83;7.95;;;9.30;99.90;;;;;;5070629;28;19919;-91
2021/08/17 01:37:18;;;;;;;17.85;8.88;;;9.20;99.90;;;;;;5054279;28;20377;-92
2021/08/17 01:40:28;;;;;;;17.55;8.75;;;9.20;99.90;;;;;;5056358;28;20106;-91
2021/08/17 01:49:09;;;;;;;19.60;8.65;;;9.20;99.90;;;;;;5005152;28;20050;-91
2021/08/17 01:52:01;;;;;;;;;;;;;;;;;;;;;
2021/08/17 01:55:18;;;;;;;17.83;8.45;;;9.00;99.90;;;;;;5008510;28;20046;-92
2021/08/17 02:10:43;;;;;;;18.33;9.23;;;9.00;99.90;;;;;;4856253;29;20057;-92
2021/08/17 02:14:58;;;;;;;;;;;;;;;;;;;;;
2021/08/17 02:22:18;;;;;;;22.90;9.93;;;8.80;99.90;;;;;;4843161;29;20091;-92
2021/08/17 02:29:10;;;;;;;24.85;9.60;;;8.70;99.90;;;;;;4803629;29;20047;-91
2021/08/17 02:33:01;;;;;;;;;;;;;;;;;;;;;
2021/08/17 03:03:18;;;;;;;27.48;12.25;;;8.60;99.90;;;;;;5063445;27;20400;-92
2021/08/17 03:06:05;;;;;;;;;;;8.80;99.90;;;;;;5067188;28;20049;-92
2021/08/17 03:09:53;;;;;;;25.15;11.50;;;8.70;99.90;;;;;;5046370;28;19921;-93
2021/08/17 03:12:41;;;;;;;28.10;11.23;;;8.70;99.90;;;;;;5067191;28;20041;-91
2021/08/17 03:28:40;;;;;;;25.98;11.85;;;8.50;99.90;;;;;;4988989;28;20727;-92
2021/08/17 03:31:51;;;;;;;24.10;12.02;;;8.60;99.90;;;;;;4992436;28;20201;-91
2021/08/17 03:34:40;;;;;;;24.70;11.32;;;8.60;99.90;;;;;;4993647;28;20050;-93
2021/08/17 03:37:51;;;;;;;23.25;11.07;;;8.60;99.90;;;;;;5009646;28;20054;-91
2021/08/17 03:40:40;;;;;;;25.98;13.20;;;8.70;99.90;;;;;;4981493;28;20113;-91
2021/08/17 03:43:44;;;;;;;;;;;;;;;;;;;;;
2021/08/17 03:46:36;;;;;;;24.58;11.07;;;8.60;99.90;;;;;;5000972;28;20053;-92
2021/08/17 03:49:24;;;;;;;29.17;12.18;;;8.50;99.90;;;;;;4980107;28;20050;-92
2021/08/17 03:53:09;;;;;;;22.50;11.13;;;8.50;99.90;;;;;;5039612;28;20041;-92
2021/08/17 03:55:57;;;;;;;26.13;11.02;;;8.50;99.90;;;;;;5038455;28;20095;-90
2021/08/17 03:59:58;;;;;;;;;;;;;;;;;;;;;
2021/08/17 04:11:29;;;;;;;31.60;11.68;;;8.40;99.90;;;;;;4873228;29;20465;-93
2021/08/17 04:14:52;;;;;;;;;;;;;;;;;;;;;
2021/08/17 04:18:01;;;;;;;22.48;11.07;;;8.40;99.90;;;;;;4963917;28;20509;-93
2021/08/17 04:20:51;;;;;;;21.52;11.20;;;8.40;99.90;;;;;;4928124;29;20170;-92
2021/08/17 04:23:40;;;;;;;21.15;10.75;;;8.40;99.90;;;;;;4936318;28;20106;-92
2021/08/17 04:27:04;;;;;;;21.92;11.13;;;8.40;99.90;;;;;;5032145;28;20042;-94
2021/08/17 04:30:30;;;;;;;;;;;;;;;;;;;;;
2021/08/17 04:46:20;;;;;;;21.88;10.93;;;8.40;99.90;;;;;;4939013;28;20034;-92
2021/08/17 04:49:45;;;;;;;23.35;10.15;;;8.40;99.90;;;;;;4977777;28;20464;-89
2021/08/17 04:53:04;;;;;;;21.30;10.40;;;8.40;99.90;;;;;;4932002;28;20070;-91
2021/08/17 04:56:46;;;;;;;;;;;;;;;;;;;;;
2021/08/17 05:04:02;;;;;;;25.67;11.55;;;8.50;99.90;;;;;;4971949;28;20046;-91
2021/08/17 05:07:13;;;;;;;25.02;10.73;;;8.60;99.90;;;;;;4996850;28;20053;-88
2021/08/17 05:10:06;;;;;;;22.60;10.43;;;8.60;99.90;;;;;;4995168;28;20047;-92
2021/08/17 05:12:54;;;;;;;22.85;10.95;;;8.60;99.90;;;;;;5007348;28;20060;-88
2021/08/17 05:15:56;;;;;;;22.98;10.75;;;8.70;99.90;;;;;;4993654;28;20053;-89
2021/08/17 05:18:48;;;;;;;25.92;11.20;;;8.70;99.90;;;;;;5011447;28;20050;-88
2021/08/17 05:21:41;;;;;;;20.98;9.95;;;8.80;99.90;;;;;;5019879;28;20108;-88
2021/08/17 05:24:53;;;;;;;23.77;10.23;;;8.90;99.90;;;;;;4978627;28;20042;-90
2021/08/17 05:27:43;;;;;;;22.02;10.90;;;9.00;99.90;;;;;;5008072;28;20332;-90
2021/08/17 05:30:54;;;;;;;17.00;9.90;;;9.10;99.90;;;;;;5019579;28;20042;-90
2021/08/17 05:33:44;;;;;;;21.77;9.65;;;9.10;99.90;;;;;;5007261;28;20429;-90
2021/08/17 05:37:32;;;;;;;20.45;8.95;;;9.20;99.90;;;;;;5040200;28;20121;-91
2021/08/17 05:44:23;;;;;;;17.73;8.82;;;9.30;99.90;;;;;;5005197;28;20121;-89
2021/08/17 05:47:12;;;;;;;19.38;9.35;;;9.40;99.90;;;;;;5004393;28;20049;-90
2021/08/17 05:49:59;;;;;;;18.45;8.55;;;9.50;99.90;;;;;;5003278;28;20057;-87
2021/08/17 05:52:49;;;;;;;18.08;8.48;;;9.50;99.90;;;;;;5003653;28;20042;-88
2021/08/17 05:55:40;;;;;;;17.90;9.57;;;9.60;99.90;;;;;;5006987;28;20049;-86
2021/08/17 05:58:27;;;;;;;19.10;8.30;;;9.70;99.90;;;;;;5028219;28;20045;-87
2021/08/17 06:01:14;;;;;;;15.02;8.10;;;9.90;99.90;;;;;;5007739;28;20468;-85
2021/08/17 06:04:10;;;;;;;14.65;8.18;;;10.00;99.90;;;;;;5043617;28;20437;-90
2021/08/17 06:06:57;;;;;;;14.77;8.18;;;10.30;99.90;;;;;;5042834;28;20053;-89
2021/08/17 06:09:46;;;;;;;16.05;7.97;;;10.40;99.90;;;;;;5027263;28;20352;-87
2021/08/17 06:12:43;;;;;;;13.70;7.10;;;10.50;99.90;;;;;;5034686;28;20129;-87
2021/08/17 06:15:30;;;;;;;15.88;7.97;;;10.70;99.90;;;;;;5046290;28;20041;-90
2021/08/17 06:18:18;;;;;;;18.35;7.95;;;11.00;99.90;;;;;;5049917;28;20041;-89
2021/08/17 06:21:06;;;;;;;19.48;8.20;;;11.10;99.90;;;;;;5021438;28;20045;-91
2021/08/17 06:23:58;;;;;;;12.32;7.65;;;11.30;99.90;;;;;;5019646;28;20096;-90
2021/08/17 06:26:45;;;;;;;16.35;7.35;;;11.40;99.90;;;;;;5022073;28;20029;-90
2021/08/17 06:29:34;;;;;;;12.93;7.18;;;11.60;99.90;;;;;;5018173;28;20435;-89
2021/08/17 06:32:22;;;;;;;12.45;7.70;;;11.70;99.90;;;;;;5047467;28;20037;-89
2021/08/17 06:35:10;;;;;;;14.85;8.02;;;12.00;99.90;;;;;;5046290;28;20044;-89
2021/08/17 06:37:57;;;;;;;12.90;7.32;;;12.40;99.90;;;;;;5039875;28;20119;-87
2021/08/17 06:40:44;;;;;;;13.27;7.53;;;12.60;99.90;;;;;;5041818;28;20037;-88
2021/08/17 06:43:37;;;;;;;19.15;7.72;;;12.80;99.90;;;;;;5036749;28;20052;-91
2021/08/17 06:46:28;;;;;;;11.68;6.07;;;13.00;99.90;;;;;;5025572;28;20057;-92
2021/08/17 06:49:23;;;;;;;11.75;6.40;;;13.10;99.90;;;;;;5053914;28;20047;-92
2021/08/17 06:53:39;;;;;;;13.98;7.13;;;13.20;99.90;;;;;;4987652;28;20042;-94
2021/08/17 06:57:28;;;;;;;;;;;;;;;;;;;;;
2021/08/17 07:01:41;;;;;;;;;;;;;;;;;;;;;
2021/08/17 07:09:07;;;;;;;11.73;6.18;;;13.60;99.90;;;;;;4909356;29;20112;-93
2021/08/17 07:12:19;;;;;;;;;;;;;;;;;;;;;
2021/08/17 07:15:38;;;;;;;14.48;6.68;;;14.20;99.90;;;;;;4927241;29;20076;-91
2021/08/17 07:18:39;;;;;;;12.40;6.90;;;14.40;99.90;;;;;;4977871;28;20055;-90
2021/08/17 07:21:26;;;;;;;13.70;6.53;;;14.50;99.90;;;;;;5008753;28;20050;-88
2021/08/17 07:24:16;;;;;;;14.00;7.32;;;14.20;99.90;;;;;;5010348;28;20045;-90
2021/08/17 07:27:08;;;;;;;14.02;7.35;;;14.30;99.90;;;;;;5024400;28;20040;-92
2021/08/17 07:30:11;;;;;;;;;;;;;;;;;;;;;
2021/08/17 07:33:02;;;;;;;13.48;7.72;;;14.40;99.90;;;;;;5041879;28;20038;-89
2021/08/17 07:35:59;;;;;;;13.93;7.32;;;14.50;99.90;;;;;;5020315;28;20048;-92
2021/08/17 07:38:48;;;;;;;15.85;7.85;;;14.60;99.90;;;;;;5007677;28;20378;-91
2021/08/17 07:46:15;;;;;;;11.90;7.72;;;14.20;99.90;;;;;;5028168;28;20037;-93
2021/08/17 07:53:29;;;;;;;13.90;8.27;;;14.80;99.90;;;;;;5005762;28;20064;-93
2021/08/17 07:56:19;;;;;;;12.65;7.97;;;15.20;99.90;;;;;;5018215;28;20121;-92
2021/08/17 07:59:15;;;;;;;12.68;7.70;;;15.40;99.90;;;;;;5019402;28;20041;-91
2021/08/17 08:02:02;;;;;;;12.27;7.35;;;15.90;99.90;;;;;;5032782;28;20195;-89
2021/08/17 08:04:52;;;;;;;11.85;7.53;;;16.30;99.90;;;;;;5037492;28;20045;-92
2021/08/17 08:07:42;;;;;;;12.80;7.50;;;16.20;99.90;;;;;;5022828;28;20079;-92
2021/08/17 08:10:43;;;;;;;10.25;6.68;;;16.30;99.90;;;;;;5035034;28;20041;-92
2021/08/17 08:14:08;;;;;;;11.30;7.22;;;17.20;99.90;;;;;;5033821;28;20340;-93
2021/08/17 08:21:43;;;;;;;;;;;;;;;;;;;;;
2021/08/17 08:36:35;;;;;;;13.57;7.03;;;17.80;97.30;;;;;;4938376;29;20070;-92
2021/08/17 08:39:25;;;;;;;8.68;5.88;;;17.60;95.60;;;;;;4934409;29;20044;-90
2021/08/17 08:43:19;;;;;;;9.95;6.70;;;18.00;93.30;;;;;;4848075;29;20045;-94
2021/08/17 08:46:23;;;;;;;14.43;7.13;;;18.20;94.40;;;;;;4891044;29;20053;-91
2021/08/17 08:49:54;;;;;;;11.80;7.60;;;18.00;94.20;;;;;;4819612;29;20068;-91
2021/08/17 08:53:10;;;;;;;9.98;6.32;;;18.00;94.20;;;;;;4827791;29;20534;-93
2021/08/17 09:00:28;;;;;;;8.88;6.20;;;17.60;95.10;;;;;;4871357;29;20036;-93
2021/08/17 09:03:16;;;;;;;8.88;6.32;;;17.20;91.90;;;;;;4910659;29;20043;-91
2021/08/17 09:10:16;;;;;;;11.02;6.63;;;17.10;91.70;;;;;;4926263;29;20080;-93
2021/08/17 09:18:57;;;;;;;;;;;;;;;;;;;;;
2021/08/17 09:26:15;;;;;;;12.38;6.78;;;17.90;90.10;;;;;;4816068;29;20106;-93
2021/08/17 09:29:02;;;;;;;9.57;6.53;;;17.50;90.20;;;;;;4813822;29;20052;-91
2021/08/17 09:32:28;;;;;;;9.98;6.65;;;17.40;94.20;;;;;;4846386;29;20054;-92
2021/08/17 09:39:44;;;;;;;;;;;;;;;;;;;;;
2021/08/17 09:42:54;;;;;;;11.45;5.95;;;17.90;91.80;;;;;;4814978;29;20062;-92
2021/08/17 09:46:34;;;;;;;;;;;;;;;;;;;;;
2021/08/17 09:50:20;;;;;;;7.45;5.50;;;21.10;75.40;;;;;;4829071;29;20041;-93
2021/08/17 09:53:38;;;;;;;8.77;5.18;;;22.20;67.50;;;;;;4781444;30;20405;-91
2021/08/17 09:57:10;;;;;;;7.00;4.85;;;21.60;69.10;;;;;;4786171;29;20043;-92
2021/08/17 10:00:18;;;;;;;6.78;4.55;;;21.50;63.00;;;;;;4875822;29;20108;-91
2021/08/17 10:03:19;;;;;;;6.70;4.80;;;21.40;61.70;;;;;;4871019;29;20049;-91
2021/08/17 10:06:24;;;;;;;6.72;4.30;;;21.00;65.30;;;;;;4958009;28;20058;-91
2021/08/17 10:10:05;;;;;;;;;;;;;;;;;;;;;
2021/08/17 10:13:20;;;;;;;9.30;5.40;;;20.20;66.70;;;;;;4891960;29;20131;-91
2021/08/17 10:16:08;;;;;;;10.00;5.43;;;19.90;70.70;;;;;;4884981;28;20366;-90
2021/08/17 10:18:57;;;;;;;7.97;5.45;;;19.60;65.60;;;;;;4957684;28;20434;-91
2021/08/17 10:21:51;;;;;;;9.95;5.25;;;18.60;68.60;;;;;;4951397;28;20124;-91
2021/08/17 10:24:41;;;;;;;8.40;5.32;;;18.30;76.60;;;;;;4945798;29;20044;-91
2021/08/17 10:27:37;;;;;;;7.32;5.63;;;18.30;77.20;;;;;;4945804;28;20043;-90
2021/08/17 10:30:25;;;;;;;7.45;5.50;;;18.90;74.60;;;;;;4942036;29;20047;-90
2021/08/17 10:33:39;;;;;;;7.78;5.22;;;20.20;79.20;;;;;;4951246;29;20063;-91
2021/08/17 10:37:23;;;;;;;5.93;4.60;;;21.70;69.90;;;;;;4940674;29;20047;-92
2021/08/17 10:40:57;;;;;;;7.28;4.90;;;22.30;65.30;;;;;;4945898;29;20051;-92
2021/08/17 10:43:51;;;;;;;7.57;5.25;;;22.20;63.90;;;;;;4973475;28;20054;-90
2021/08/17 10:47:22;;;;;;;7.50;5.20;;;22.70;59.70;;;;;;4986104;28;20057;-93
2021/08/17 10:50:41;;;;;;;7.75;5.18;;;22.80;62.40;;;;;;4917565;29;20047;-91
2021/08/17 10:54:22;;;;;;;;;;;;;;;;;;;;;
2021/08/17 10:58:13;;;;;;;;;;;;;;;;;;;;;
2021/08/17 11:01:50;;;;;;;;;;;;;;;;;;;;;
2021/08/17 11:05:21;;;;;;;;;;;23.10;60.00;;;;;;4854739;29;20044;-92
2021/08/17 11:08:30;;;;;;;7.05;5.20;;;23.60;57.60;;;;;;4933136;28;19922;-92
2021/08/17 11:11:21;;;;;;;7.25;5.07;;;24.90;54.50;;;;;;4985246;28;20058;-91
2021/08/17 11:14:11;;;;;;;6.95;4.70;;;26.20;50.90;;;;;;4971627;28;20038;-92
2021/08/17 11:17:08;;;;;;;9.40;5.40;;;26.30;46.90;;;;;;4985125;28;20043;-92
2021/08/17 11:20:33;;;;;;;7.45;5.07;;;25.90;53.70;;;;;;4980997;28;20046;-92
2021/08/17 11:23:39;;;;;;;8.00;5.70;;;25.90;51.10;;;;;;4978048;28;20044;-90
2021/08/17 11:26:32;;;;;;;9.23;6.18;;;26.30;50.30;;;;;;4993118;28;20046;-93
2021/08/17 11:29:32;;;;;;;9.00;5.20;;;26.80;53.90;;;;;;4974875;28;20062;-91
2021/08/17 11:32:39;;;;;;;6.18;4.53;;;27.30;48.90;;;;;;4985133;28;20450;-91
2021/08/17 11:35:33;;;;;;;7.15;4.65;;;28.40;45.10;;;;;;4983196;28;20382;-92
2021/08/17 11:38:41;;;;;;;6.07;4.43;;;28.70;45.10;;;;;;4970045;28;20494;-92
2021/08/17 11:42:07;;;;;;;6.53;5.15;;;28.60;48.70;;;;;;4979681;28;20050;-92
2021/08/17 11:44:59;;;;;;;7.68;5.22;;;28.80;45.00;;;;;;4965836;28;20159;-92
2021/08/17 11:47:47;;;;;;;6.65;5.10;;;29.80;41.50;;;;;;4977994;28;20051;-91
2021/08/17 11:50:38;;;;;;;5.85;4.63;;;30.10;45.40;;;;;;4982529;28;20465;-93
2021/08/17 11:53:44;;;;;;;6.35;5.15;;;31.00;41.80;;;;;;4974109;28;20043;-92
2021/08/17 11:56:35;;;;;;;5.72;4.55;;;30.60;42.60;;;;;;4980799;28;20108;-91
2021/08/17 11:59:51;;;;;;;7.50;5.40;;;30.30;41.20;;;;;;4976164;28;20093;-92
2021/08/17 12:02:57;;;;;;;8.00;5.15;;;29.80;43.30;;;;;;4985888;28;20042;-93
2021/08/17 12:06:24;;;;;;;7.30;5.43;;;30.10;38.40;;;;;;4977482;28;20070;-93
2021/08/17 12:09:48;;;;;;;5.70;4.97;;;30.10;39.40;;;;;;4919781;29;20056;-94
2021/08/17 12:13:26;;;;;;;;;;;;;;;;;;;;;
2021/08/17 12:16:53;;;;;;;8.07;5.23;;;31.10;41.10;;;;;;4914492;29;20142;-92
2021/08/17 12:20:28;;;;;;;7.00;5.13;;;31.00;35.10;;;;;;4933222;29;20047;-92
2021/08/17 12:24:07;;;;;;;7.22;5.03;;;29.60;38.60;;;;;;4948284;29;20094;-93
2021/08/17 12:27:21;;;;;;;7.00;5.32;;;28.90;41.10;;;;;;4939819;28;20147;-92
2021/08/17 12:31:02;;;;;;;6.05;4.95;;;26.30;44.80;;;;;;4865583;29;20056;-93
2021/08/17 12:34:06;;;;;;;6.85;5.00;;;26.90;42.60;;;;;;4899292;28;20070;-92
2021/08/17 12:36:59;;;;;;;10.25;4.93;;;27.10;44.00;;;;;;4994361;28;20050;-93
2021/08/17 12:40:04;;;;;;;6.50;4.47;;;26.40;41.70;;;;;;4992358;28;20069;-92
2021/08/17 12:43:26;;;;;;;7.82;5.00;;;26.90;43.30;;;;;;5001805;28;20387;-92
2021/08/17 12:46:15;;;;;;;6.32;4.88;;;28.60;46.70;;;;;;5005484;28;20054;-91
2021/08/17 12:49:13;;;;;;;6.45;4.82;;;30.00;38.10;;;;;;5004235;28;20035;-92
2021/08/17 12:52:21;;;;;;;7.60;4.60;;;30.10;39.20;;;;;;4974652;28;20401;-92
2021/08/17 12:55:38;;;;;;;;;;;;;;;;;;;;;
2021/08/17 12:58:37;;;;;;;6.63;5.00;;;29.00;43.20;;;;;;5000005;28;20445;-92
2021/08/17 13:01:24;;;;;;;5.82;4.57;;;30.30;38.40;;;;;;4997729;28;20104;-92
2021/08/17 13:04:30;;;;;;;6.28;4.53;;;30.60;36.20;;;;;;4998481;28;20042;-91
2021/08/17 13:07:51;;;;;;;6.55;4.47;;;27.20;40.70;;;;;;4992924;28;20142;-90
2021/08/17 13:10:46;;;;;;;5.20;3.85;;;24.00;45.50;;;;;;4976028;28;20039;-91
2021/08/17 13:18:23;;;;;;;6.47;4.22;;;22.50;50.10;;;;;;4912700;29;20051;-92
2021/08/17 13:21:27;;;;;;;6.32;4.60;;;23.30;49.60;;;;;;4870372;29;20127;-93
2021/08/17 13:24:17;;;;;;;5.53;4.25;;;23.20;47.80;;;;;;4927940;29;20044;-92
2021/08/17 13:30:56;;;;;;;7.70;5.53;;;21.90;52.50;;;;;;4928788;29;20047;-91
2021/08/17 13:34:22;;;;;;;7.95;4.65;;;21.50;54.10;;;;;;4918028;29;20123;-93
2021/08/17 13:37:11;;;;;;;8.98;5.00;;;21.60;56.80;;;;;;4916164;29;20127;-92
2021/08/17 13:43:40;;;;;;;6.95;4.72;;;22.20;54.70;;;;;;4901406;29;20055;-91
2021/08/17 13:46:45;;;;;;;7.03;4.72;;;22.50;55.10;;;;;;4901895;28;20053;-91
2021/08/17 13:49:48;;;;;;;6.25;4.53;;;22.40;55.60;;;;;;4957794;28;20053;-92
2021/08/17 13:52:56;;;;;;;6.38;4.60;;;22.50;53.80;;;;;;4974318;28;20122;-91
2021/08/17 13:55:46;;;;;;;5.88;4.55;;;22.30;58.30;;;;;;4974366;28;20050;-91
2021/08/17 13:58:56;;;;;;;5.57;4.30;;;22.20;56.00;;;;;;4971737;28;20070;-92
2021/08/17 14:02:13;;;;;;;6.03;4.65;;;22.10;56.70;;;;;;4979789;28;20042;-92
2021/08/17 14:05:03;;;;;;;6.47;4.30;;;22.20;57.00;;;;;;4969042;28;20071;-92
2021/08/17 14:07:51;;;;;;;6.75;4.75;;;22.30;54.90;;;;;;4963714;28;20129;-88
2021/08/17 14:11:13;;;;;;;6.90;4.60;;;22.40;57.00;;;;;;4980066;28;20057;-92
2021/08/17 14:14:14;;;;;;;7.50;4.63;;;22.30;58.70;;;;;;4992899;28;20054;-91
2021/08/17 14:17:04;;;;;;;6.93;4.63;;;22.30;57.30;;;;;;4986606;28;20046;-92
2021/08/17 14:19:52;;;;;;;7.28;4.95;;;22.40;56.20;;;;;;4990874;28;20058;-90
2021/08/17 14:22:40;;;;;;;6.43;4.35;;;22.70;54.70;;;;;;5003288;28;20057;-92
2021/08/17 14:25:27;;;;;;;5.97;4.45;;;22.70;55.60;;;;;;4988545;28;20043;-89
2021/08/17 14:28:15;;;;;;;6.38;5.03;;;23.10;53.50;;;;;;4999500;28;20049;-89
2021/08/17 14:31:03;;;;;;;5.75;4.60;;;22.70;55.00;;;;;;4977449;28;20061;-90
2021/08/17 14:33:50;;;;;;;5.95;4.55;;;22.60;54.50;;;;;;5004108;28;20059;-90
2021/08/17 14:36:40;;;;;;;7.38;5.22;;;23.10;53.20;;;;;;5004549;28;20384;-89
2021/08/17 14:39:28;;;;;;;6.43;5.00;;;23.40;54.00;;;;;;4977901;28;20074;-93
2021/08/17 14:42:15;;;;;;;7.28;4.90;;;24.00;51.50;;;;;;4984336;28;20586;-90
2021/08/17 14:45:03;;;;;;;7.93;5.55;;;24.10;52.50;;;;;;4982357;28;20477;-90
2021/08/17 14:47:51;;;;;;;7.50;4.95;;;24.10;52.20;;;;;;4973431;28;20050;-90
2021/08/17 14:50:44;;;;;;;7.65;5.40;;;23.70;53.20;;;;;;4992338;28;20055;-88
2021/08/17 14:53:33;;;;;;;8.40;4.90;;;23.30;55.00;;;;;;4995227;28;20050;-91
2021/08/17 14:56:24;;;;;;;6.72;5.13;;;23.00;56.60;;;;;;4988383;28;20185;-90
2021/08/17 14:59:14;;;;;;;8.45;5.40;;;22.70;56.40;;;;;;4977533;28;20146;-92
2021/08/17 15:02:02;;;;;;;8.32;5.50;;;22.20;59.10;;;;;;4983202;28;20097;-89
2021/08/17 15:04:49;;;;;;;7.63;5.85;;;21.90;59.60;;;;;;4976599;28;20057;-89
2021/08/17 15:07:37;;;;;;;8.02;5.57;;;21.60;60.70;;;;;;4963598;28;20046;-91
2021/08/17 15:10:25;;;;;;;8.55;5.80;;;21.30;59.30;;;;;;4989717;28;20441;-89
2021/08/17 15:13:14;;;;;;;11.05;6.03;;;21.00;63.70;;;;;;4974389;28;20057;-91
2021/08/17 15:16:03;;;;;;;8.40;5.85;;;20.90;61.30;;;;;;4975225;28;20050;-89
2021/08/17 15:18:51;;;;;;;7.28;5.70;;;20.70;67.20;;;;;;4989288;28;20046;-89
2021/08/17 15:21:38;;;;;;;7.53;5.90;;;20.50;66.80;;;;;;4990601;28;20129;-87
2021/08/17 15:24:27;;;;;;;10.25;5.82;;;20.10;67.70;;;;;;4973050;28;20158;-87
2021/08/17 15:27:17;;;;;;;7.68;6.07;;;19.60;69.30;;;;;;4989403;28;20100;-88
2021/08/17 15:30:09;;;;;;;10.90;6.13;;;19.60;67.20;;;;;;4990139;28;20102;-90
2021/08/17 15:32:56;;;;;;;8.25;5.88;;;19.40;71.40;;;;;;4976199;28;20046;-89
2021/08/17 15:35:46;;;;;;;11.63;5.90;;;19.30;71.30;;;;;;4976292;28;20457;-90
2021/08/17 15:38:37;;;;;;;8.45;6.53;;;19.10;73.10;;;;;;4975233;28;20045;-88
2021/08/17 15:41:24;;;;;;;8.32;5.50;;;18.80;74.10;;;;;;4986105;28;20069;-89
2021/08/17 15:44:12;;;;;;;8.40;5.72;;;18.70;73.80;;;;;;4988083;28;20367;-88
2021/08/17 15:46:59;;;;;;;14.88;6.90;;;18.60;74.20;;;;;;4972171;28;20353;-89
2021/08/17 15:49:47;;;;;;;11.82;6.15;;;18.50;80.00;;;;;;4993705;28;20421;-88
2021/08/17 15:52:34;;;;;;;10.30;6.70;;;18.40;75.30;;;;;;4989503;28;20042;-90
2021/08/17 15:55:22;;;;;;;9.60;6.53;;;18.20;78.10;;;;;;4974604;28;20054;-90
2021/08/17 15:58:12;;;;;;;10.07;7.18;;;18.00;74.80;;;;;;4967112;28;20055;-90
2021/08/17 16:01:00;;;;;;;10.93;7.15;;;17.90;77.50;;;;;;4987527;28;20083;-90
2021/08/17 16:03:50;;;;;;;10.32;7.05;;;17.70;79.50;;;;;;4991154;28;20355;-90
2021/08/17 16:06:37;;;;;;;10.57;7.03;;;17.50;82.00;;;;;;4990459;28;20134;-89
2021/08/17 16:09:25;;;;;;;10.38;7.10;;;17.40;83.30;;;;;;4994952;28;20057;-90
2021/08/17 16:12:15;;;;;;;11.00;7.65;;;17.30;83.50;;;;;;4999022;28;20393;-92
2021/08/17 16:15:40;;;;;;;10.35;7.45;;;17.30;83.10;;;;;;4968913;28;20054;-91
2021/08/17 16:18:31;;;;;;;10.35;6.82;;;17.30;82.10;;;;;;4976403;28;20039;-92
2021/08/17 16:21:23;;;;;;;12.40;7.85;;;17.30;82.00;;;;;;4977642;28;20046;-90
2021/08/17 16:24:11;;;;;;;12.63;7.78;;;17.20;85.90;;;;;;4967710;28;20061;-92
2021/08/17 16:27:01;;;;;;;13.48;8.07;;;17.20;87.40;;;;;;4980577;28;20121;-91
2021/08/17 16:29:48;;;;;;;12.98;8.40;;;17.10;86.50;;;;;;4978517;28;20043;-91
2021/08/17 16:32:39;;;;;;;10.68;7.68;;;17.10;90.00;;;;;;4988504;28;20488;-92
2021/08/17 16:35:27;;;;;;;12.50;7.97;;;17.20;90.00;;;;;;4988340;28;20144;-89
2021/08/17 16:38:14;;;;;;;13.32;8.38;;;17.20;89.80;;;;;;4994716;28;20053;-90
2021/08/17 16:41:04;;;;;;;13.63;8.45;;;17.20;89.30;;;;;;4978067;28;20074;-90
2021/08/17 16:43:52;;;;;;;13.50;8.20;;;17.20;87.80;;;;;;4982645;28;20057;-89
2021/08/17 16:46:42;;;;;;;13.93;8.73;;;17.10;89.50;;;;;;4964210;28;20058;-92
2021/08/17 16:49:34;;;;;;;14.55;8.57;;;17.00;90.70;;;;;;4994749;28;20058;-91
2021/08/17 16:52:22;;;;;;;13.05;8.20;;;16.70;91.30;;;;;;4980314;28;20042;-90
2021/08/17 16:55:13;;;;;;;13.85;8.80;;;16.70;91.90;;;;;;4994704;28;20038;-90
2021/08/17 16:58:01;;;;;;;12.18;7.97;;;16.60;92.30;;;;;;5003512;28;20053;-91
2021/08/17 17:00:48;;;;;;;17.05;9.80;;;16.50;91.60;;;;;;4985475;28;20038;-91
2021/08/17 17:06:04;;;;;;;14.35;9.05;;;16.50;94.30;;;;;;4981070;28;20051;-91
2021/08/17 17:08:53;;;;;;;14.73;8.85;;;16.40;94.60;;;;;;4948712;29;20047;-91
2021/08/17 17:11:41;;;;;;;15.63;9.45;;;16.30;95.70;;;;;;4977389;28;20047;-92
2021/08/17 17:14:29;;;;;;;12.73;8.90;;;16.30;95.70;;;;;;4929272;28;20360;-93
2021/08/17 17:17:17;;;;;;;14.75;9.55;;;16.30;96.00;;;;;;4958047;28;20039;-91
2021/08/17 17:20:06;;;;;;;17.80;9.82;;;16.20;97.30;;;;;;4939184;28;20050;-92
2021/08/17 17:22:58;;;;;;;16.83;9.23;;;16.20;98.80;;;;;;4960175;28;20040;-91
2021/08/17 17:25:50;;;;;;;14.98;8.88;;;16.10;98.10;;;;;;4972587;28;20047;-90
2021/08/17 17:28:38;;;;;;;15.43;10.07;;;16.10;99.00;;;;;;4940744;29;20066;-91
2021/08/17 17:31:28;;;;;;;16.05;10.13;;;16.10;99.90;;;;;;4945797;28;20058;-91
2021/08/17 17:34:15;;;;;;;30.38;14.48;;;16.00;99.90;;;;;;4943228;28;20046;-89
2021/08/17 17:37:03;;;;;;;27.83;13.63;;;15.90;99.90;;;;;;4965785;28;20456;-92
2021/08/17 17:39:51;;;;;;;14.93;10.18;;;15.80;99.90;;;;;;4952817;28;20154;-92
2021/08/17 17:42:38;;;;;;;17.48;10.40;;;15.70;99.90;;;;;;4956489;28;20330;-93
2021/08/17 17:45:25;;;;;;;16.88;10.13;;;15.70;99.90;;;;;;4944018;28;20054;-94
2021/08/17 17:48:13;;;;;;;14.23;9.75;;;15.60;99.90;;;;;;4943976;28;20043;-93
2021/08/17 17:51:01;;;;;;;16.27;9.60;;;15.60;99.90;;;;;;4953172;28;20401;-93
2021/08/17 17:53:48;;;;;;;15.43;9.57;;;15.50;99.90;;;;;;4943784;29;20055;-91
2021/08/17 17:56:36;;;;;;;16.48;10.05;;;15.50;99.90;;;;;;4927172;29;20043;-93
2021/08/17 17:59:23;;;;;;;17.20;10.27;;;15.40;99.90;;;;;;4937824;28;20040;-88
2021/08/17 18:02:14;;;;;;;17.92;10.95;;;15.30;99.90;;;;;;4949174;28;20157;-90
2021/08/17 18:05:06;;;;;;;20.30;11.00;;;15.20;99.90;;;;;;4956394;28;20051;-90
2021/08/17 18:07:54;;;;;;;16.47;10.17;;;15.10;99.90;;;;;;4943359;28;20450;-91
2021/08/17 18:10:48;;;;;;;15.82;10.65;;;15.10;99.90;;;;;;4941922;28;20065;-92
2021/08/17 18:14:46;;;;;;;;;;;;;;;;;;;;;
2021/08/17 18:18:19;;;;;;;21.13;10.95;;;15.10;99.90;;;;;;4908072;29;20055;-92
2021/08/17 18:21:34;;;;;;;20.33;10.63;;;15.10;99.90;;;;;;4835590;29;20132;-93
2021/08/17 18:28:26;;;;;;;19.63;11.25;;;14.90;99.90;;;;;;4853803;29;20053;-93
2021/08/17 18:36:10;;;;;;;21.67;11.95;;;14.70;99.90;;;;;;4724942;30;20053;-93
2021/08/17 19:38:40;;;;;;;;;;;;;;;;;;;;;
2021/08/17 19:45:37;;;;;;;;;;;;;;;;;;;;;
2021/08/17 19:48:49;;;;;;;38.72;19.65;;;13.10;99.90;;;;;;4938405;29;20071;-92
2021/08/17 19:51:52;;;;;;;37.42;19.67;;;13.20;99.90;;;;;;4925169;29;20043;-93
2021/08/17 19:54:46;;;;;;;41.58;21.25;;;13.20;99.90;;;;;;4915206;29;20058;-91
2021/08/17 19:57:35;;;;;;;37.28;19.80;;;13.20;99.90;;;;;;4946039;29;20059;-90
2021/08/17 23:23:43;;;;;;;;;;;;;;;;;;;;;
